sensor_id;sensor_type;location;lat;lon;timestamp;P1;durP1;ratioP1;P2;durP2;ratioP2
9449;SDS011;4763;48.370;10.874;2022-11-04T00:01:18;8.17;;;5.87;;
9449;SDS011;4763;48.370;10.874;2022-11-04T00:03:46;6.47;;;5.20;;
9449;SDS011;4763;48.370;10.874;2022-11-04T00:06:13;6.73;;;5.27;;
9449;SDS011;4763;48.370;10.874;2022-11-04T00:08:40;6.70;;;5.47;;
9449;SDS011;4763;48.370;10.874;2022-11-04T00:11:08;6.27;;;4.73;;
9449;SDS011;4763;48.370;10.874;2022-11-04T00:13:53;6.60;;;4.67;;
9449;SDS011;4763;48.370;10.874;2022-11-04T00:16:20;6.90;;;4.43;;
9449;SDS011;4763;48.370;10.874;2022-11-04T00:19:05;4.83;;;4.33;;
9449;SDS011;4763;48.370;10.874;2022-11-04T00:21:32;5.40;;;3.47;;
9449;SDS011;4763;48.370;10.874;2022-11-04T00:24:16;5.63;;;3.20;;
9449;SDS011;4763;48.370;10.874;2022-11-04T00:27:09;4.73;;;3.57;;
9449;SDS011;4763;48.370;10.874;2022-11-04T00:29:55;4.00;;;3.10;;
9449;SDS011;4763;48.370;10.874;2022-11-04T00:32:22;4.27;;;2.90;;
9449;SDS011;4763;48.370;10.874;2022-11-04T00:35:08;3.00;;;2.67;;
9449;SDS011;4763;48.370;10.874;2022-11-04T00:37:36;3.43;;;2.80;;
9449;SDS011;4763;48.370;10.874;2022-11-04T00:40:03;3.53;;;2.60;;
9449;SDS011;4763;48.370;10.874;2022-11-04T00:42:31;5.30;;;3.00;;
9449;SDS011;4763;48.370;10.874;2022-11-04T00:44:58;3.33;;;2.30;;
9449;SDS011;4763;48.370;10.874;2022-11-04T00:47:25;2.60;;;2.00;;
9449;SDS011;4763;48.370;10.874;2022-11-04T00:49:52;3.40;;;2.47;;
9449;SDS011;4763;48.370;10.874;2022-11-04T00:52:20;2.97;;;2.20;;
9449;SDS011;4763;48.370;10.874;2022-11-04T00:54:47;3.07;;;2.47;;
9449;SDS011;4763;48.370;10.874;2022-11-04T00:57:14;4.57;;;2.23;;
9449;SDS011;4763;48.370;10.874;2022-11-04T00:59:41;4.47;;;2.30;;
9449;SDS011;4763;48.370;10.874;2022-11-04T01:02:10;5.77;;;2.10;;
9449;SDS011;4763;48.370;10.874;2022-11-04T01:04:37;2.53;;;1.93;;
9449;SDS011;4763;48.370;10.874;2022-11-04T01:07:04;2.17;;;1.77;;
9449;SDS011;4763;48.370;10.874;2022-11-04T01:09:32;2.23;;;1.60;;
9449;SDS011;4763;48.370;10.874;2022-11-04T01:11:59;2.80;;;2.00;;
9449;SDS011;4763;48.370;10.874;2022-11-04T01:14:26;1.67;;;1.57;;
9449;SDS011;4763;48.370;10.874;2022-11-04T01:16:53;1.80;;;1.50;;
9449;SDS011;4763;48.370;10.874;2022-11-04T01:19:20;2.17;;;1.50;;
9449;SDS011;4763;48.370;10.874;2022-11-04T01:21:49;2.07;;;1.37;;
9449;SDS011;4763;48.370;10.874;2022-11-04T01:24:16;2.10;;;1.60;;
9449;SDS011;4763;48.370;10.874;2022-11-04T01:26:44;1.60;;;1.27;;
9449;SDS011;4763;48.370;10.874;2022-11-04T01:29:11;2.83;;;1.10;;
9449;SDS011;4763;48.370;10.874;2022-11-04T01:31:38;1.67;;;1.40;;
9449;SDS011;4763;48.370;10.874;2022-11-04T01:34:05;1.70;;;1.23;;
9449;SDS011;4763;48.370;10.874;2022-11-04T01:36:32;1.50;;;1.27;;
9449;SDS011;4763;48.370;10.874;2022-11-04T01:38:59;1.57;;;1.40;;
9449;SDS011;4763;48.370;10.874;2022-11-04T01:41:26;2.47;;;1.40;;
9449;SDS011;4763;48.370;10.874;2022-11-04T01:43:56;1.93;;;1.33;;
9449;SDS011;4763;48.370;10.874;2022-11-04T01:46:28;2.27;;;1.20;;
9449;SDS011;4763;48.370;10.874;2022-11-04T01:49:01;1.60;;;1.40;;
9449;SDS011;4763;48.370;10.874;2022-11-04T01:51:34;1.77;;;1.30;;
9449;SDS011;4763;48.370;10.874;2022-11-04T01:54:05;1.20;;;1.10;;
9449;SDS011;4763;48.370;10.874;2022-11-04T01:56:34;1.50;;;0.90;;
9449;SDS011;4763;48.370;10.874;2022-11-04T01:59:04;1.43;;;0.93;;
9449;SDS011;4763;48.370;10.874;2022-11-04T02:01:34;1.20;;;1.00;;
9449;SDS011;4763;48.370;10.874;2022-11-04T02:04:01;1.90;;;1.07;;
9449;SDS011;4763;48.370;10.874;2022-11-04T02:06:43;3.00;;;1.17;;
9449;SDS011;4763;48.370;10.874;2022-11-04T02:09:11;1.20;;;1.10;;
9449;SDS011;4763;48.370;10.874;2022-11-04T02:11:38;1.20;;;1.03;;
9449;SDS011;4763;48.370;10.874;2022-11-04T02:14:27;0.93;;;0.70;;
9449;SDS011;4763;48.370;10.874;2022-11-04T02:16:59;1.27;;;1.10;;
9449;SDS011;4763;48.370;10.874;2022-11-04T02:19:38;0.90;;;0.90;;
9449;SDS011;4763;48.370;10.874;2022-11-04T02:22:38;1.10;;;1.00;;
9449;SDS011;4763;48.370;10.874;2022-11-04T02:25:32;1.50;;;1.10;;
9449;SDS011;4763;48.370;10.874;2022-11-04T02:28:22;2.40;;;1.23;;
9449;SDS011;4763;48.370;10.874;2022-11-04T02:31:21;1.33;;;1.23;;
9449;SDS011;4763;48.370;10.874;2022-11-04T02:33:55;1.30;;;1.03;;
9449;SDS011;4763;48.370;10.874;2022-11-04T02:36:32;1.30;;;1.20;;
9449;SDS011;4763;48.370;10.874;2022-11-04T02:39:10;1.13;;;0.97;;
9449;SDS011;4763;48.370;10.874;2022-11-04T02:41:47;2.00;;;1.10;;
9449;SDS011;4763;48.370;10.874;2022-11-04T02:44:20;1.20;;;1.00;;
9449;SDS011;4763;48.370;10.874;2022-11-04T02:46:57;1.20;;;0.97;;
9449;SDS011;4763;48.370;10.874;2022-11-04T02:49:29;4.90;;;1.20;;
9449;SDS011;4763;48.370;10.874;2022-11-04T02:52:00;1.20;;;0.90;;
9449;SDS011;4763;48.370;10.874;2022-11-04T02:54:32;1.10;;;1.00;;
9449;SDS011;4763;48.370;10.874;2022-11-04T02:57:04;0.97;;;0.80;;
9449;SDS011;4763;48.370;10.874;2022-11-04T02:59:35;1.30;;;1.20;;
9449;SDS011;4763;48.370;10.874;2022-11-04T03:02:09;1.37;;;0.70;;
9449;SDS011;4763;48.370;10.874;2022-11-04T03:04:44;2.30;;;1.03;;
9449;SDS011;4763;48.370;10.874;2022-11-04T03:07:18;1.50;;;1.00;;
9449;SDS011;4763;48.370;10.874;2022-11-04T03:09:50;0.83;;;0.73;;
9449;SDS011;4763;48.370;10.874;2022-11-04T03:12:24;0.80;;;0.73;;
9449;SDS011;4763;48.370;10.874;2022-11-04T03:14:56;0.90;;;0.90;;
9449;SDS011;4763;48.370;10.874;2022-11-04T03:17:30;1.17;;;0.90;;
9449;SDS011;4763;48.370;10.874;2022-11-04T03:20:02;0.80;;;0.80;;
9449;SDS011;4763;48.370;10.874;2022-11-04T03:22:34;1.20;;;0.80;;
9449;SDS011;4763;48.370;10.874;2022-11-04T03:25:02;0.43;;;0.40;;
9449;SDS011;4763;48.370;10.874;2022-11-04T03:27:32;1.13;;;1.03;;
9449;SDS011;4763;48.370;10.874;2022-11-04T03:30:05;0.83;;;0.67;;
9449;SDS011;4763;48.370;10.874;2022-11-04T03:32:38;1.63;;;0.67;;
9449;SDS011;4763;48.370;10.874;2022-11-04T03:35:09;0.70;;;0.70;;
9449;SDS011;4763;48.370;10.874;2022-11-04T03:37:37;0.40;;;0.40;;
9449;SDS011;4763;48.370;10.874;2022-11-04T03:40:04;0.93;;;0.80;;
9449;SDS011;4763;48.370;10.874;2022-11-04T03:42:32;0.90;;;0.70;;
9449;SDS011;4763;48.370;10.874;2022-11-04T03:45:04;0.77;;;0.77;;
9449;SDS011;4763;48.370;10.874;2022-11-04T03:47:31;0.80;;;0.73;;
9449;SDS011;4763;48.370;10.874;2022-11-04T03:50:01;0.53;;;0.53;;
9449;SDS011;4763;48.370;10.874;2022-11-04T03:52:33;0.63;;;0.63;;
9449;SDS011;4763;48.370;10.874;2022-11-04T03:55:00;0.40;;;0.40;;
9449;SDS011;4763;48.370;10.874;2022-11-04T03:57:32;0.57;;;0.40;;
9449;SDS011;4763;48.370;10.874;2022-11-04T04:00:06;0.63;;;0.53;;
9449;SDS011;4763;48.370;10.874;2022-11-04T04:02:43;0.50;;;0.50;;
9449;SDS011;4763;48.370;10.874;2022-11-04T04:05:30;0.73;;;0.73;;
9449;SDS011;4763;48.370;10.874;2022-11-04T04:08:09;0.57;;;0.57;;
9449;SDS011;4763;48.370;10.874;2022-11-04T04:10:41;0.60;;;0.60;;
9449;SDS011;4763;48.370;10.874;2022-11-04T04:13:18;0.40;;;0.40;;
9449;SDS011;4763;48.370;10.874;2022-11-04T04:15:51;0.63;;;0.63;;
9449;SDS011;4763;48.370;10.874;2022-11-04T04:18:25;1.63;;;0.63;;
9449;SDS011;4763;48.370;10.874;2022-11-04T04:20:58;0.80;;;0.53;;
9449;SDS011;4763;48.370;10.874;2022-11-04T04:23:28;0.93;;;0.83;;
9449;SDS011;4763;48.370;10.874;2022-11-04T04:26:16;0.83;;;0.57;;
9449;SDS011;4763;48.370;10.874;2022-11-04T04:29:04;0.60;;;0.60;;
9449;SDS011;4763;48.370;10.874;2022-11-04T04:31:32;0.63;;;0.60;;
9449;SDS011;4763;48.370;10.874;2022-11-04T04:34:14;0.53;;;0.53;;
9449;SDS011;4763;48.370;10.874;2022-11-04T04:36:44;0.60;;;0.60;;
9449;SDS011;4763;48.370;10.874;2022-11-04T04:39:15;1.67;;;0.50;;
9449;SDS011;4763;48.370;10.874;2022-11-04T04:42:02;0.50;;;0.50;;
9449;SDS011;4763;48.370;10.874;2022-11-04T04:44:48;1.10;;;0.90;;
9449;SDS011;4763;48.370;10.874;2022-11-04T04:47:29;1.30;;;0.67;;
9449;SDS011;4763;48.370;10.874;2022-11-04T04:50:03;0.60;;;0.60;;
9449;SDS011;4763;48.370;10.874;2022-11-04T04:52:33;0.90;;;0.60;;
9449;SDS011;4763;48.370;10.874;2022-11-04T04:55:04;1.40;;;0.50;;
9449;SDS011;4763;48.370;10.874;2022-11-04T04:57:31;0.90;;;0.80;;
9449;SDS011;4763;48.370;10.874;2022-11-04T04:59:58;0.63;;;0.63;;
9449;SDS011;4763;48.370;10.874;2022-11-04T05:02:25;0.70;;;0.60;;
9449;SDS011;4763;48.370;10.874;2022-11-04T05:04:51;0.53;;;0.43;;
9449;SDS011;4763;48.370;10.874;2022-11-04T05:07:20;0.97;;;0.80;;
9449;SDS011;4763;48.370;10.874;2022-11-04T05:09:48;1.27;;;0.73;;
9449;SDS011;4763;48.370;10.874;2022-11-04T05:12:15;1.00;;;0.90;;
9449;SDS011;4763;48.370;10.874;2022-11-04T05:14:42;0.53;;;0.53;;
9449;SDS011;4763;48.370;10.874;2022-11-04T05:17:08;0.70;;;0.70;;
9449;SDS011;4763;48.370;10.874;2022-11-04T05:19:35;0.97;;;0.60;;
9449;SDS011;4763;48.370;10.874;2022-11-04T05:22:02;0.57;;;0.50;;
9449;SDS011;4763;48.370;10.874;2022-11-04T05:24:29;0.57;;;0.57;;
9449;SDS011;4763;48.370;10.874;2022-11-04T05:26:57;0.80;;;0.70;;
9449;SDS011;4763;48.370;10.874;2022-11-04T05:29:24;0.97;;;0.80;;
9449;SDS011;4763;48.370;10.874;2022-11-04T05:31:51;2.33;;;0.83;;
9449;SDS011;4763;48.370;10.874;2022-11-04T05:34:17;1.13;;;0.83;;
9449;SDS011;4763;48.370;10.874;2022-11-04T05:36:44;0.57;;;0.57;;
9449;SDS011;4763;48.370;10.874;2022-11-04T05:39:11;3.73;;;1.07;;
9449;SDS011;4763;48.370;10.874;2022-11-04T05:41:39;1.77;;;0.60;;
9449;SDS011;4763;48.370;10.874;2022-11-04T05:44:07;2.63;;;1.00;;
9449;SDS011;4763;48.370;10.874;2022-11-04T05:46:35;0.90;;;0.73;;
9449;SDS011;4763;48.370;10.874;2022-11-04T05:49:02;3.37;;;0.77;;
9449;SDS011;4763;48.370;10.874;2022-11-04T05:51:29;0.73;;;0.70;;
9449;SDS011;4763;48.370;10.874;2022-11-04T05:53:56;1.30;;;0.90;;
9449;SDS011;4763;48.370;10.874;2022-11-04T05:56:23;1.83;;;1.00;;
9449;SDS011;4763;48.370;10.874;2022-11-04T05:58:50;1.43;;;0.90;;
9449;SDS011;4763;48.370;10.874;2022-11-04T06:01:26;1.57;;;0.70;;
9449;SDS011;4763;48.370;10.874;2022-11-04T06:03:57;1.33;;;1.03;;
9449;SDS011;4763;48.370;10.874;2022-11-04T06:06:25;1.00;;;0.90;;
9449;SDS011;4763;48.370;10.874;2022-11-04T06:08:54;2.83;;;1.10;;
9449;SDS011;4763;48.370;10.874;2022-11-04T06:11:21;2.80;;;1.00;;
9449;SDS011;4763;48.370;10.874;2022-11-04T06:13:48;1.10;;;1.00;;
9449;SDS011;4763;48.370;10.874;2022-11-04T06:16:16;1.50;;;0.77;;
9449;SDS011;4763;48.370;10.874;2022-11-04T06:18:44;1.27;;;0.70;;
9449;SDS011;4763;48.370;10.874;2022-11-04T06:21:18;1.17;;;1.00;;
9449;SDS011;4763;48.370;10.874;2022-11-04T06:23:50;3.87;;;2.40;;
9449;SDS011;4763;48.370;10.874;2022-11-04T06:26:17;1.97;;;1.30;;
9449;SDS011;4763;48.370;10.874;2022-11-04T06:28:49;1.40;;;1.23;;
9449;SDS011;4763;48.370;10.874;2022-11-04T06:31:24;1.77;;;1.47;;
9449;SDS011;4763;48.370;10.874;2022-11-04T06:33:53;2.33;;;1.63;;
9449;SDS011;4763;48.370;10.874;2022-11-04T06:36:19;2.10;;;1.67;;
9449;SDS011;4763;48.370;10.874;2022-11-04T06:38:46;1.77;;;1.33;;
9449;SDS011;4763;48.370;10.874;2022-11-04T06:41:14;1.07;;;0.80;;
9449;SDS011;4763;48.370;10.874;2022-11-04T06:43:42;1.67;;;1.10;;
9449;SDS011;4763;48.370;10.874;2022-11-04T06:46:22;1.33;;;1.00;;
9449;SDS011;4763;48.370;10.874;2022-11-04T06:48:52;3.30;;;1.00;;
9449;SDS011;4763;48.370;10.874;2022-11-04T06:51:20;0.80;;;0.80;;
9449;SDS011;4763;48.370;10.874;2022-11-04T06:53:47;1.23;;;1.03;;
9449;SDS011;4763;48.370;10.874;2022-11-04T06:56:14;1.33;;;0.90;;
9449;SDS011;4763;48.370;10.874;2022-11-04T06:58:40;1.20;;;1.10;;
9449;SDS011;4763;48.370;10.874;2022-11-04T07:01:07;0.90;;;0.80;;
9449;SDS011;4763;48.370;10.874;2022-11-04T07:03:34;1.90;;;1.07;;
9449;SDS011;4763;48.370;10.874;2022-11-04T07:06:06;1.93;;;1.30;;
9449;SDS011;4763;48.370;10.874;2022-11-04T07:08:34;4.17;;;1.03;;
9449;SDS011;4763;48.370;10.874;2022-11-04T07:11:01;2.67;;;1.13;;
9449;SDS011;4763;48.370;10.874;2022-11-04T07:13:28;1.60;;;1.03;;
9449;SDS011;4763;48.370;10.874;2022-11-04T07:15:55;1.53;;;0.83;;
9449;SDS011;4763;48.370;10.874;2022-11-04T07:18:22;2.53;;;1.30;;
9449;SDS011;4763;48.370;10.874;2022-11-04T07:20:49;3.53;;;1.13;;
9449;SDS011;4763;48.370;10.874;2022-11-04T07:23:17;3.20;;;2.13;;
9449;SDS011;4763;48.370;10.874;2022-11-04T07:25:43;2.13;;;1.57;;
9449;SDS011;4763;48.370;10.874;2022-11-04T07:28:10;4.60;;;1.17;;
9449;SDS011;4763;48.370;10.874;2022-11-04T07:30:37;4.67;;;1.30;;
9449;SDS011;4763;48.370;10.874;2022-11-04T07:33:04;3.10;;;1.30;;
9449;SDS011;4763;48.370;10.874;2022-11-04T07:35:30;1.00;;;0.90;;
9449;SDS011;4763;48.370;10.874;2022-11-04T07:37:57;3.67;;;1.03;;
9449;SDS011;4763;48.370;10.874;2022-11-04T07:40:25;2.27;;;1.07;;
9449;SDS011;4763;48.370;10.874;2022-11-04T07:42:52;1.03;;;0.83;;
9449;SDS011;4763;48.370;10.874;2022-11-04T07:45:19;2.00;;;1.00;;
9449;SDS011;4763;48.370;10.874;2022-11-04T07:47:46;1.43;;;1.00;;
9449;SDS011;4763;48.370;10.874;2022-11-04T07:50:12;2.87;;;1.30;;
9449;SDS011;4763;48.370;10.874;2022-11-04T07:52:39;3.47;;;1.40;;
9449;SDS011;4763;48.370;10.874;2022-11-04T07:55:06;1.57;;;1.10;;
9449;SDS011;4763;48.370;10.874;2022-11-04T07:57:36;1.53;;;1.20;;
9449;SDS011;4763;48.370;10.874;2022-11-04T08:00:03;2.13;;;1.10;;
9449;SDS011;4763;48.370;10.874;2022-11-04T08:02:31;2.03;;;1.07;;
9449;SDS011;4763;48.370;10.874;2022-11-04T08:04:57;4.07;;;1.83;;
9449;SDS011;4763;48.370;10.874;2022-11-04T08:07:24;1.33;;;1.13;;
9449;SDS011;4763;48.370;10.874;2022-11-04T08:09:51;1.50;;;1.00;;
9449;SDS011;4763;48.370;10.874;2022-11-04T08:12:18;1.30;;;1.20;;
9449;SDS011;4763;48.370;10.874;2022-11-04T08:14:47;2.00;;;1.00;;
9449;SDS011;4763;48.370;10.874;2022-11-04T08:17:14;2.13;;;1.20;;
9449;SDS011;4763;48.370;10.874;2022-11-04T08:19:40;1.70;;;1.10;;
9449;SDS011;4763;48.370;10.874;2022-11-04T08:22:07;1.13;;;1.00;;
9449;SDS011;4763;48.370;10.874;2022-11-04T08:24:34;1.70;;;1.37;;
9449;SDS011;4763;48.370;10.874;2022-11-04T08:27:02;2.20;;;1.30;;
9449;SDS011;4763;48.370;10.874;2022-11-04T08:29:31;2.80;;;1.67;;
9449;SDS011;4763;48.370;10.874;2022-11-04T08:31:59;3.23;;;1.70;;
9449;SDS011;4763;48.370;10.874;2022-11-04T08:34:26;3.17;;;1.50;;
9449;SDS011;4763;48.370;10.874;2022-11-04T08:36:53;2.30;;;1.30;;
9449;SDS011;4763;48.370;10.874;2022-11-04T08:39:21;2.90;;;1.70;;
9449;SDS011;4763;48.370;10.874;2022-11-04T08:41:49;3.40;;;1.70;;
9449;SDS011;4763;48.370;10.874;2022-11-04T08:44:17;1.67;;;1.50;;
9449;SDS011;4763;48.370;10.874;2022-11-04T08:46:45;1.90;;;1.70;;
9449;SDS011;4763;48.370;10.874;2022-11-04T08:49:13;2.07;;;1.70;;
9449;SDS011;4763;48.370;10.874;2022-11-04T08:51:41;3.53;;;1.90;;
9449;SDS011;4763;48.370;10.874;2022-11-04T08:54:11;2.37;;;1.80;;
9449;SDS011;4763;48.370;10.874;2022-11-04T08:56:38;2.20;;;1.80;;
9449;SDS011;4763;48.370;10.874;2022-11-04T08:59:05;3.23;;;2.00;;
9449;SDS011;4763;48.370;10.874;2022-11-04T09:01:33;4.00;;;2.73;;
9449;SDS011;4763;48.370;10.874;2022-11-04T09:04:01;2.20;;;1.60;;
9449;SDS011;4763;48.370;10.874;2022-11-04T09:06:31;4.77;;;1.97;;
9449;SDS011;4763;48.370;10.874;2022-11-04T09:09:00;2.57;;;1.83;;
9449;SDS011;4763;48.370;10.874;2022-11-04T09:11:29;2.83;;;1.87;;
9449;SDS011;4763;48.370;10.874;2022-11-04T09:13:57;2.80;;;1.67;;
9449;SDS011;4763;48.370;10.874;2022-11-04T09:16:26;2.77;;;1.93;;
9449;SDS011;4763;48.370;10.874;2022-11-04T09:18:54;3.30;;;1.70;;
9449;SDS011;4763;48.370;10.874;2022-11-04T09:21:22;3.87;;;1.70;;
9449;SDS011;4763;48.370;10.874;2022-11-04T09:23:50;2.90;;;1.90;;
9449;SDS011;4763;48.370;10.874;2022-11-04T09:26:17;1.57;;;1.33;;
9449;SDS011;4763;48.370;10.874;2022-11-04T09:28:44;1.93;;;1.67;;
9449;SDS011;4763;48.370;10.874;2022-11-04T09:31:12;2.10;;;1.50;;
9449;SDS011;4763;48.370;10.874;2022-11-04T09:33:40;1.87;;;1.60;;
9449;SDS011;4763;48.370;10.874;2022-11-04T09:36:07;1.70;;;1.30;;
9449;SDS011;4763;48.370;10.874;2022-11-04T09:38:35;2.60;;;1.97;;
9449;SDS011;4763;48.370;10.874;2022-11-04T09:41:10;3.03;;;1.90;;
9449;SDS011;4763;48.370;10.874;2022-11-04T09:44:00;2.57;;;1.70;;
9449;SDS011;4763;48.370;10.874;2022-11-04T09:46:37;2.63;;;2.20;;
9449;SDS011;4763;48.370;10.874;2022-11-04T09:49:05;2.47;;;1.87;;
9449;SDS011;4763;48.370;10.874;2022-11-04T09:51:36;4.03;;;2.30;;
9449;SDS011;4763;48.370;10.874;2022-11-04T09:54:07;3.20;;;2.43;;
9449;SDS011;4763;48.370;10.874;2022-11-04T09:56:43;6.50;;;2.23;;
9449;SDS011;4763;48.370;10.874;2022-11-04T09:59:14;5.23;;;2.33;;
9449;SDS011;4763;48.370;10.874;2022-11-04T10:01:47;2.93;;;2.00;;
9449;SDS011;4763;48.370;10.874;2022-11-04T10:04:24;3.00;;;1.70;;
9449;SDS011;4763;48.370;10.874;2022-11-04T10:07:04;3.67;;;1.80;;
9449;SDS011;4763;48.370;10.874;2022-11-04T10:09:41;2.47;;;1.80;;
9449;SDS011;4763;48.370;10.874;2022-11-04T10:12:21;2.37;;;1.50;;
9449;SDS011;4763;48.370;10.874;2022-11-04T10:15:14;2.30;;;1.40;;
9449;SDS011;4763;48.370;10.874;2022-11-04T10:17:58;2.00;;;1.60;;
9449;SDS011;4763;48.370;10.874;2022-11-04T10:20:40;4.27;;;1.70;;
9449;SDS011;4763;48.370;10.874;2022-11-04T10:23:18;4.83;;;1.27;;
9449;SDS011;4763;48.370;10.874;2022-11-04T10:25:50;2.47;;;1.40;;
9449;SDS011;4763;48.370;10.874;2022-11-04T10:28:33;2.43;;;1.70;;
9449;SDS011;4763;48.370;10.874;2022-11-04T10:31:05;1.73;;;1.40;;
9449;SDS011;4763;48.370;10.874;2022-11-04T10:33:37;2.87;;;1.83;;
9449;SDS011;4763;48.370;10.874;2022-11-04T10:36:07;3.73;;;1.60;;
9449;SDS011;4763;48.370;10.874;2022-11-04T10:38:35;2.00;;;1.77;;
9449;SDS011;4763;48.370;10.874;2022-11-04T10:41:17;2.47;;;1.70;;
9449;SDS011;4763;48.370;10.874;2022-11-04T10:43:52;1.80;;;1.67;;
9449;SDS011;4763;48.370;10.874;2022-11-04T10:46:27;3.43;;;1.40;;
9449;SDS011;4763;48.370;10.874;2022-11-04T10:49:04;2.60;;;1.77;;
9449;SDS011;4763;48.370;10.874;2022-11-04T10:51:45;2.40;;;1.70;;
9449;SDS011;4763;48.370;10.874;2022-11-04T10:54:12;1.57;;;1.30;;
9449;SDS011;4763;48.370;10.874;2022-11-04T10:56:40;2.30;;;1.63;;
9449;SDS011;4763;48.370;10.874;2022-11-04T10:59:20;1.87;;;1.50;;
9449;SDS011;4763;48.370;10.874;2022-11-04T11:01:50;1.40;;;1.27;;
9449;SDS011;4763;48.370;10.874;2022-11-04T11:04:25;3.90;;;2.40;;
9449;SDS011;4763;48.370;10.874;2022-11-04T11:06:54;2.93;;;1.40;;
9449;SDS011;4763;48.370;10.874;2022-11-04T11:09:23;2.80;;;1.63;;
9449;SDS011;4763;48.370;10.874;2022-11-04T11:11:54;3.13;;;2.00;;
9449;SDS011;4763;48.370;10.874;2022-11-04T11:14:31;1.63;;;1.30;;
9449;SDS011;4763;48.370;10.874;2022-11-04T11:19:52;2.03;;;1.70;;
9449;SDS011;4763;48.370;10.874;2022-11-04T11:25:13;2.43;;;2.17;;
9449;SDS011;4763;48.370;10.874;2022-11-04T11:27:46;1.67;;;1.50;;
9449;SDS011;4763;48.370;10.874;2022-11-04T11:30:22;2.97;;;1.50;;
9449;SDS011;4763;48.370;10.874;2022-11-04T11:32:52;1.60;;;1.27;;
9449;SDS011;4763;48.370;10.874;2022-11-04T11:35:22;2.10;;;1.47;;
9449;SDS011;4763;48.370;10.874;2022-11-04T11:37:52;1.40;;;1.30;;
9449;SDS011;4763;48.370;10.874;2022-11-04T11:40:24;2.30;;;1.40;;
9449;SDS011;4763;48.370;10.874;2022-11-04T11:42:55;1.77;;;1.30;;
9449;SDS011;4763;48.370;10.874;2022-11-04T11:45:25;5.50;;;1.87;;
9449;SDS011;4763;48.370;10.874;2022-11-04T11:47:53;3.00;;;1.80;;
9449;SDS011;4763;48.370;10.874;2022-11-04T11:50:21;2.83;;;1.80;;
9449;SDS011;4763;48.370;10.874;2022-11-04T11:53:05;2.03;;;1.63;;
9449;SDS011;4763;48.370;10.874;2022-11-04T11:55:40;1.50;;;1.40;;
9449;SDS011;4763;48.370;10.874;2022-11-04T11:58:18;1.40;;;1.27;;
9449;SDS011;4763;48.370;10.874;2022-11-04T12:00:55;2.37;;;1.73;;
9449;SDS011;4763;48.370;10.874;2022-11-04T12:03:28;4.00;;;1.77;;
9449;SDS011;4763;48.370;10.874;2022-11-04T12:06:09;1.83;;;1.53;;
9449;SDS011;4763;48.370;10.874;2022-11-04T12:08:51;1.53;;;1.40;;
9449;SDS011;4763;48.370;10.874;2022-11-04T12:11:32;2.10;;;1.53;;
9449;SDS011;4763;48.370;10.874;2022-11-04T12:14:08;2.73;;;1.80;;
9449;SDS011;4763;48.370;10.874;2022-11-04T12:16:42;2.07;;;1.80;;
9449;SDS011;4763;48.370;10.874;2022-11-04T12:19:19;3.70;;;1.60;;
9449;SDS011;4763;48.370;10.874;2022-11-04T12:22:07;3.37;;;1.93;;
9449;SDS011;4763;48.370;10.874;2022-11-04T12:24:45;2.30;;;1.70;;
9449;SDS011;4763;48.370;10.874;2022-11-04T12:27:22;3.23;;;1.90;;
9449;SDS011;4763;48.370;10.874;2022-11-04T12:30:00;2.20;;;1.50;;
9449;SDS011;4763;48.370;10.874;2022-11-04T12:32:37;3.90;;;1.90;;
9449;SDS011;4763;48.370;10.874;2022-11-04T12:35:15;2.97;;;1.73;;
9449;SDS011;4763;48.370;10.874;2022-11-04T12:38:01;2.73;;;1.90;;
9449;SDS011;4763;48.370;10.874;2022-11-04T12:40:50;2.67;;;2.00;;
9449;SDS011;4763;48.370;10.874;2022-11-04T12:43:22;2.23;;;1.90;;
9449;SDS011;4763;48.370;10.874;2022-11-04T12:45:59;3.20;;;1.70;;
9449;SDS011;4763;48.370;10.874;2022-11-04T12:48:43;3.13;;;2.37;;
9449;SDS011;4763;48.370;10.874;2022-11-04T12:51:23;3.27;;;2.37;;
9449;SDS011;4763;48.370;10.874;2022-11-04T12:54:14;4.50;;;2.63;;
9449;SDS011;4763;48.370;10.874;2022-11-04T12:56:49;4.23;;;2.70;;
9449;SDS011;4763;48.370;10.874;2022-11-04T12:59:33;3.20;;;2.00;;
9449;SDS011;4763;48.370;10.874;2022-11-04T13:02:12;4.47;;;2.73;;
9449;SDS011;4763;48.370;10.874;2022-11-04T13:04:49;3.70;;;2.20;;
9449;SDS011;4763;48.370;10.874;2022-11-04T13:07:21;4.27;;;2.00;;
9449;SDS011;4763;48.370;10.874;2022-11-04T13:09:57;2.50;;;1.87;;
9449;SDS011;4763;48.370;10.874;2022-11-04T13:12:30;3.40;;;2.10;;
9449;SDS011;4763;48.370;10.874;2022-11-04T13:15:04;3.20;;;2.17;;
9449;SDS011;4763;48.370;10.874;2022-11-04T13:17:40;4.53;;;2.00;;
9449;SDS011;4763;48.370;10.874;2022-11-04T13:20:14;4.40;;;1.80;;
9449;SDS011;4763;48.370;10.874;2022-11-04T13:22:48;2.47;;;1.80;;
9449;SDS011;4763;48.370;10.874;2022-11-04T13:25:18;1.87;;;1.57;;
9449;SDS011;4763;48.370;10.874;2022-11-04T13:27:53;1.70;;;1.60;;
9449;SDS011;4763;48.370;10.874;2022-11-04T13:30:26;3.97;;;1.60;;
9449;SDS011;4763;48.370;10.874;2022-11-04T13:32:59;2.90;;;1.80;;
9449;SDS011;4763;48.370;10.874;2022-11-04T13:35:36;1.93;;;1.63;;
9449;SDS011;4763;48.370;10.874;2022-11-04T13:38:07;3.03;;;1.50;;
9449;SDS011;4763;48.370;10.874;2022-11-04T13:40:40;1.90;;;1.63;;
9449;SDS011;4763;48.370;10.874;2022-11-04T13:43:14;6.43;;;1.90;;
9449;SDS011;4763;48.370;10.874;2022-11-04T13:46:04;2.83;;;1.53;;
9449;SDS011;4763;48.370;10.874;2022-11-04T13:48:49;2.83;;;1.70;;
9449;SDS011;4763;48.370;10.874;2022-11-04T13:51:23;2.50;;;1.80;;
9449;SDS011;4763;48.370;10.874;2022-11-04T13:54:04;2.10;;;1.63;;
9449;SDS011;4763;48.370;10.874;2022-11-04T13:56:33;2.10;;;1.63;;
9449;SDS011;4763;48.370;10.874;2022-11-04T13:59:03;2.93;;;1.70;;
9449;SDS011;4763;48.370;10.874;2022-11-04T14:01:43;2.27;;;1.70;;
9449;SDS011;4763;48.370;10.874;2022-11-04T14:06:56;2.80;;;1.70;;
9449;SDS011;4763;48.370;10.874;2022-11-04T14:09:35;2.33;;;1.50;;
9449;SDS011;4763;48.370;10.874;2022-11-04T14:15:08;1.60;;;1.20;;
9449;SDS011;4763;48.370;10.874;2022-11-04T14:20:24;1.60;;;1.37;;
9449;SDS011;4763;48.370;10.874;2022-11-04T14:22:55;3.50;;;1.60;;
9449;SDS011;4763;48.370;10.874;2022-11-04T14:25:25;2.60;;;1.40;;
9449;SDS011;4763;48.370;10.874;2022-11-04T14:27:54;4.30;;;1.93;;
9449;SDS011;4763;48.370;10.874;2022-11-04T14:30:34;2.27;;;1.47;;
9449;SDS011;4763;48.370;10.874;2022-11-04T14:33:18;1.47;;;1.37;;
9449;SDS011;4763;48.370;10.874;2022-11-04T14:36:15;2.13;;;1.53;;
9449;SDS011;4763;48.370;10.874;2022-11-04T14:38:57;2.40;;;1.90;;
9449;SDS011;4763;48.370;10.874;2022-11-04T14:44:28;2.70;;;1.80;;
9449;SDS011;4763;48.370;10.874;2022-11-04T14:46:57;1.90;;;1.47;;
9449;SDS011;4763;48.370;10.874;2022-11-04T14:49:29;2.07;;;1.53;;
9449;SDS011;4763;48.370;10.874;2022-11-04T14:52:03;2.37;;;1.40;;
9449;SDS011;4763;48.370;10.874;2022-11-04T14:54:32;3.13;;;2.13;;
9449;SDS011;4763;48.370;10.874;2022-11-04T14:59:49;3.77;;;2.13;;
9449;SDS011;4763;48.370;10.874;2022-11-04T15:02:18;3.67;;;1.90;;
9449;SDS011;4763;48.370;10.874;2022-11-04T15:04:49;4.53;;;1.80;;
9449;SDS011;4763;48.370;10.874;2022-11-04T15:07:23;3.33;;;1.83;;
9449;SDS011;4763;48.370;10.874;2022-11-04T15:09:58;5.00;;;1.77;;
9449;SDS011;4763;48.370;10.874;2022-11-04T15:12:26;5.03;;;2.40;;
9449;SDS011;4763;48.370;10.874;2022-11-04T15:15:24;4.63;;;1.97;;
9449;SDS011;4763;48.370;10.874;2022-11-04T15:17:53;3.97;;;2.00;;
9449;SDS011;4763;48.370;10.874;2022-11-04T15:20:24;3.40;;;1.97;;
9449;SDS011;4763;48.370;10.874;2022-11-04T15:22:54;4.17;;;1.70;;
9449;SDS011;4763;48.370;10.874;2022-11-04T15:25:24;4.97;;;2.23;;
9449;SDS011;4763;48.370;10.874;2022-11-04T15:27:50;2.27;;;1.83;;
9449;SDS011;4763;48.370;10.874;2022-11-04T15:30:19;1.50;;;1.40;;
9449;SDS011;4763;48.370;10.874;2022-11-04T15:32:54;3.93;;;1.77;;
9449;SDS011;4763;48.370;10.874;2022-11-04T15:35:22;5.73;;;1.83;;
9449;SDS011;4763;48.370;10.874;2022-11-04T15:37:50;5.23;;;1.80;;
9449;SDS011;4763;48.370;10.874;2022-11-04T15:40:19;3.37;;;1.90;;
9449;SDS011;4763;48.370;10.874;2022-11-04T15:42:48;5.67;;;4.50;;
9449;SDS011;4763;48.370;10.874;2022-11-04T15:45:16;5.10;;;2.83;;
9449;SDS011;4763;48.370;10.874;2022-11-04T15:51:03;3.80;;;2.27;;
9449;SDS011;4763;48.370;10.874;2022-11-04T15:53:50;4.73;;;2.20;;